sensor_id;sensor_type;location;lat;lon;timestamp;P1;durP1;ratioP1;P2;durP2;ratioP2
24223;SDS011;12359;49.716;9.212;2024-01-25T00:01:29;0.20;;;0.20;;
24223;SDS011;12359;49.716;9.212;2024-01-25T00:03:55;0.20;;;0.20;;
24223;SDS011;12359;49.716;9.212;2024-01-25T00:06:20;0.10;;;0.10;;
24223;SDS011;12359;49.716;9.212;2024-01-25T00:08:46;0.20;;;0.20;;
24223;SDS011;12359;49.716;9.212;2024-01-25T00:11:12;0.20;;;0.20;;
24223;SDS011;12359;49.716;9.212;2024-01-25T00:13:38;0.20;;;0.20;;
24223;SDS011;12359;49.716;9.212;2024-01-25T00:16:04;0.20;;;0.20;;
24223;SDS011;12359;49.716;9.212;2024-01-25T00:18:30;0.20;;;0.20;;
24223;SDS011;12359;49.716;9.212;2024-01-25T00:20:56;0.10;;;0.10;;
24223;SDS011;12359;49.716;9.212;2024-01-25T00:23:22;0.20;;;0.20;;
24223;SDS011;12359;49.716;9.212;2024-01-25T00:25:47;0.20;;;0.20;;
24223;SDS011;12359;49.716;9.212;2024-01-25T00:28:13;0.20;;;0.20;;
24223;SDS011;12359;49.716;9.212;2024-01-25T00:30:39;0.20;;;0.20;;
24223;SDS011;12359;49.716;9.212;2024-01-25T00:33:05;0.20;;;0.20;;
24223;SDS011;12359;49.716;9.212;2024-01-25T00:35:30;0.20;;;0.20;;
24223;SDS011;12359;49.716;9.212;2024-01-25T00:37:57;0.10;;;0.10;;
24223;SDS011;12359;49.716;9.212;2024-01-25T00:40:23;0.20;;;0.20;;
24223;SDS011;12359;49.716;9.212;2024-01-25T00:42:48;0.20;;;0.20;;
24223;SDS011;12359;49.716;9.212;2024-01-25T00:45:21;0.20;;;0.20;;
24223;SDS011;12359;49.716;9.212;2024-01-25T00:47:47;0.20;;;0.20;;
24223;SDS011;12359;49.716;9.212;2024-01-25T00:50:14;0.20;;;0.20;;
24223;SDS011;12359;49.716;9.212;2024-01-25T00:52:42;0.20;;;0.20;;
24223;SDS011;12359;49.716;9.212;2024-01-25T00:55:09;0.20;;;0.20;;
24223;SDS011;12359;49.716;9.212;2024-01-25T00:57:35;0.20;;;0.20;;
24223;SDS011;12359;49.716;9.212;2024-01-25T01:00:01;0.20;;;0.20;;
24223;SDS011;12359;49.716;9.212;2024-01-25T01:02:29;0.20;;;0.20;;
24223;SDS011;12359;49.716;9.212;2024-01-25T01:04:59;0.20;;;0.20;;
24223;SDS011;12359;49.716;9.212;2024-01-25T01:07:24;0.20;;;0.20;;
24223;SDS011;12359;49.716;9.212;2024-01-25T01:09:51;0.20;;;0.20;;
24223;SDS011;12359;49.716;9.212;2024-01-25T01:12:16;0.20;;;0.20;;
24223;SDS011;12359;49.716;9.212;2024-01-25T01:14:42;0.20;;;0.20;;
24223;SDS011;12359;49.716;9.212;2024-01-25T01:17:08;0.20;;;0.20;;
24223;SDS011;12359;49.716;9.212;2024-01-25T01:19:34;0.20;;;0.20;;
24223;SDS011;12359;49.716;9.212;2024-01-25T01:21:59;0.10;;;0.10;;
24223;SDS011;12359;49.716;9.212;2024-01-25T01:24:25;0.20;;;0.20;;
24223;SDS011;12359;49.716;9.212;2024-01-25T01:26:51;0.20;;;0.20;;
24223;SDS011;12359;49.716;9.212;2024-01-25T01:29:16;0.15;;;0.15;;
24223;SDS011;12359;49.716;9.212;2024-01-25T01:31:43;0.20;;;0.20;;
24223;SDS011;12359;49.716;9.212;2024-01-25T01:34:09;0.20;;;0.20;;
24223;SDS011;12359;49.716;9.212;2024-01-25T01:36:34;0.20;;;0.20;;
24223;SDS011;12359;49.716;9.212;2024-01-25T01:39:00;0.20;;;0.20;;
24223;SDS011;12359;49.716;9.212;2024-01-25T01:41:26;0.20;;;0.20;;
24223;SDS011;12359;49.716;9.212;2024-01-25T01:43:52;0.20;;;0.20;;
24223;SDS011;12359;49.716;9.212;2024-01-25T01:46:28;0.20;;;0.20;;
24223;SDS011;12359;49.716;9.212;2024-01-25T01:49:01;0.20;;;0.20;;
24223;SDS011;12359;49.716;9.212;2024-01-25T01:51:28;0.15;;;0.15;;
24223;SDS011;12359;49.716;9.212;2024-01-25T01:53:56;0.20;;;0.20;;
24223;SDS011;12359;49.716;9.212;2024-01-25T01:56:24;0.20;;;0.20;;
24223;SDS011;12359;49.716;9.212;2024-01-25T01:58:52;0.20;;;0.20;;
24223;SDS011;12359;49.716;9.212;2024-01-25T02:01:18;0.20;;;0.20;;
24223;SDS011;12359;49.716;9.212;2024-01-25T02:03:45;0.20;;;0.20;;
24223;SDS011;12359;49.716;9.212;2024-01-25T02:06:11;0.20;;;0.20;;
24223;SDS011;12359;49.716;9.212;2024-01-25T02:08:37;0.20;;;0.20;;
24223;SDS011;12359;49.716;9.212;2024-01-25T02:11:03;0.20;;;0.20;;
24223;SDS011;12359;49.716;9.212;2024-01-25T02:13:29;0.10;;;0.10;;
24223;SDS011;12359;49.716;9.212;2024-01-25T02:15:55;0.20;;;0.20;;
24223;SDS011;12359;49.716;9.212;2024-01-25T02:18:20;0.20;;;0.20;;
24223;SDS011;12359;49.716;9.212;2024-01-25T02:20:46;0.20;;;0.20;;
24223;SDS011;12359;49.716;9.212;2024-01-25T02:23:12;0.20;;;0.20;;
24223;SDS011;12359;49.716;9.212;2024-01-25T02:25:37;0.20;;;0.20;;
24223;SDS011;12359;49.716;9.212;2024-01-25T02:28:03;0.15;;;0.15;;
24223;SDS011;12359;49.716;9.212;2024-01-25T02:30:29;0.20;;;0.20;;
24223;SDS011;12359;49.716;9.212;2024-01-25T02:32:55;0.20;;;0.20;;
24223;SDS011;12359;49.716;9.212;2024-01-25T02:35:21;0.20;;;0.20;;
24223;SDS011;12359;49.716;9.212;2024-01-25T02:37:47;0.20;;;0.20;;
24223;SDS011;12359;49.716;9.212;2024-01-25T02:40:13;0.20;;;0.20;;
24223;SDS011;12359;49.716;9.212;2024-01-25T02:42:39;0.20;;;0.20;;
24223;SDS011;12359;49.716;9.212;2024-01-25T02:45:04;0.20;;;0.20;;
24223;SDS011;12359;49.716;9.212;2024-01-25T02:47:30;0.20;;;0.20;;
24223;SDS011;12359;49.716;9.212;2024-01-25T02:49:56;0.20;;;0.20;;
24223;SDS011;12359;49.716;9.212;2024-01-25T02:52:21;0.20;;;0.20;;
24223;SDS011;12359;49.716;9.212;2024-01-25T02:54:47;0.20;;;0.20;;
24223;SDS011;12359;49.716;9.212;2024-01-25T02:57:14;0.20;;;0.20;;
24223;SDS011;12359;49.716;9.212;2024-01-25T02:59:39;0.20;;;0.20;;
24223;SDS011;12359;49.716;9.212;2024-01-25T03:02:05;0.20;;;0.20;;
24223;SDS011;12359;49.716;9.212;2024-01-25T03:04:31;0.20;;;0.20;;
24223;SDS011;12359;49.716;9.212;2024-01-25T03:06:56;0.20;;;0.20;;
24223;SDS011;12359;49.716;9.212;2024-01-25T03:09:22;0.20;;;0.20;;
24223;SDS011;12359;49.716;9.212;2024-01-25T03:11:48;0.20;;;0.20;;
24223;SDS011;12359;49.716;9.212;2024-01-25T03:14:14;0.20;;;0.20;;
24223;SDS011;12359;49.716;9.212;2024-01-25T03:16:40;0.20;;;0.20;;
24223;SDS011;12359;49.716;9.212;2024-01-25T03:19:05;0.20;;;0.20;;
24223;SDS011;12359;49.716;9.212;2024-01-25T03:21:31;0.20;;;0.20;;
24223;SDS011;12359;49.716;9.212;2024-01-25T03:23:57;0.20;;;0.20;;
24223;SDS011;12359;49.716;9.212;2024-01-25T03:26:23;0.20;;;0.20;;
24223;SDS011;12359;49.716;9.212;2024-01-25T03:28:48;0.20;;;0.20;;
24223;SDS011;12359;49.716;9.212;2024-01-25T03:31:14;0.30;;;0.30;;
24223;SDS011;12359;49.716;9.212;2024-01-25T03:33:39;0.20;;;0.20;;
24223;SDS011;12359;49.716;9.212;2024-01-25T03:36:05;0.17;;;0.17;;
24223;SDS011;12359;49.716;9.212;2024-01-25T03:38:31;0.20;;;0.20;;
24223;SDS011;12359;49.716;9.212;2024-01-25T03:40:57;0.20;;;0.20;;
24223;SDS011;12359;49.716;9.212;2024-01-25T03:43:27;0.20;;;0.20;;
24223;SDS011;12359;49.716;9.212;2024-01-25T03:45:53;0.20;;;0.20;;
24223;SDS011;12359;49.716;9.212;2024-01-25T03:48:19;0.20;;;0.20;;
24223;SDS011;12359;49.716;9.212;2024-01-25T03:50:44;0.20;;;0.20;;
24223;SDS011;12359;49.716;9.212;2024-01-25T03:53:11;0.20;;;0.20;;
24223;SDS011;12359;49.716;9.212;2024-01-25T03:55:36;0.20;;;0.20;;
24223;SDS011;12359;49.716;9.212;2024-01-25T03:58:02;0.20;;;0.20;;
24223;SDS011;12359;49.716;9.212;2024-01-25T04:00:28;0.20;;;0.20;;
24223;SDS011;12359;49.716;9.212;2024-01-25T04:02:53;0.30;;;0.30;;
24223;SDS011;12359;49.716;9.212;2024-01-25T04:05:19;0.20;;;0.20;;
24223;SDS011;12359;49.716;9.212;2024-01-25T04:07:45;0.20;;;0.20;;
24223;SDS011;12359;49.716;9.212;2024-01-25T04:10:11;0.10;;;0.10;;
24223;SDS011;12359;49.716;9.212;2024-01-25T04:12:37;0.20;;;0.20;;
24223;SDS011;12359;49.716;9.212;2024-01-25T04:15:02;0.20;;;0.20;;
24223;SDS011;12359;49.716;9.212;2024-01-25T04:17:28;0.20;;;0.20;;
24223;SDS011;12359;49.716;9.212;2024-01-25T04:19:54;0.20;;;0.20;;
24223;SDS011;12359;49.716;9.212;2024-01-25T04:22:20;0.20;;;0.20;;
24223;SDS011;12359;49.716;9.212;2024-01-25T04:24:45;0.20;;;0.20;;
24223;SDS011;12359;49.716;9.212;2024-01-25T04:27:13;0.10;;;0.10;;
24223;SDS011;12359;49.716;9.212;2024-01-25T04:29:39;0.20;;;0.20;;
24223;SDS011;12359;49.716;9.212;2024-01-25T04:32:09;0.20;;;0.20;;
24223;SDS011;12359;49.716;9.212;2024-01-25T04:34:35;0.20;;;0.20;;
24223;SDS011;12359;49.716;9.212;2024-01-25T04:37:01;0.20;;;0.20;;
24223;SDS011;12359;49.716;9.212;2024-01-25T04:39:27;0.20;;;0.20;;
24223;SDS011;12359;49.716;9.212;2024-01-25T04:41:53;0.20;;;0.20;;
24223;SDS011;12359;49.716;9.212;2024-01-25T04:44:19;0.20;;;0.20;;
24223;SDS011;12359;49.716;9.212;2024-01-25T04:46:44;0.20;;;0.20;;
24223;SDS011;12359;49.716;9.212;2024-01-25T04:49:10;0.20;;;0.20;;
24223;SDS011;12359;49.716;9.212;2024-01-25T04:51:36;0.20;;;0.20;;
24223;SDS011;12359;49.716;9.212;2024-01-25T04:54:01;0.20;;;0.20;;
24223;SDS011;12359;49.716;9.212;2024-01-25T04:56:28;0.20;;;0.20;;
24223;SDS011;12359;49.716;9.212;2024-01-25T04:58:54;0.20;;;0.20;;
24223;SDS011;12359;49.716;9.212;2024-01-25T05:01:19;0.20;;;0.20;;
24223;SDS011;12359;49.716;9.212;2024-01-25T05:03:45;0.20;;;0.20;;
24223;SDS011;12359;49.716;9.212;2024-01-25T05:06:11;0.20;;;0.20;;
24223;SDS011;12359;49.716;9.212;2024-01-25T05:08:36;0.20;;;0.20;;
24223;SDS011;12359;49.716;9.212;2024-01-25T05:11:02;0.20;;;0.20;;
24223;SDS011;12359;49.716;9.212;2024-01-25T05:13:28;0.20;;;0.20;;
24223;SDS011;12359;49.716;9.212;2024-01-25T05:15:54;0.28;;;0.28;;
24223;SDS011;12359;49.716;9.212;2024-01-25T05:18:20;0.20;;;0.20;;
24223;SDS011;12359;49.716;9.212;2024-01-25T05:20:45;0.20;;;0.20;;
24223;SDS011;12359;49.716;9.212;2024-01-25T05:23:11;0.20;;;0.20;;
24223;SDS011;12359;49.716;9.212;2024-01-25T05:25:37;0.20;;;0.20;;
24223;SDS011;12359;49.716;9.212;2024-01-25T05:28:03;0.20;;;0.20;;
24223;SDS011;12359;49.716;9.212;2024-01-25T05:30:28;0.20;;;0.20;;
24223;SDS011;12359;49.716;9.212;2024-01-25T05:32:54;0.20;;;0.20;;
24223;SDS011;12359;49.716;9.212;2024-01-25T05:35:20;0.20;;;0.20;;
24223;SDS011;12359;49.716;9.212;2024-01-25T05:37:46;0.20;;;0.20;;
24223;SDS011;12359;49.716;9.212;2024-01-25T05:40:12;0.20;;;0.20;;
24223;SDS011;12359;49.716;9.212;2024-01-25T05:42:38;0.20;;;0.20;;
24223;SDS011;12359;49.716;9.212;2024-01-25T05:45:05;0.20;;;0.20;;
24223;SDS011;12359;49.716;9.212;2024-01-25T05:47:31;0.20;;;0.20;;
24223;SDS011;12359;49.716;9.212;2024-01-25T05:49:57;0.20;;;0.20;;
24223;SDS011;12359;49.716;9.212;2024-01-25T05:52:23;0.20;;;0.20;;
24223;SDS011;12359;49.716;9.212;2024-01-25T05:54:49;0.20;;;0.20;;
24223;SDS011;12359;49.716;9.212;2024-01-25T05:57:18;0.20;;;0.20;;
24223;SDS011;12359;49.716;9.212;2024-01-25T05:59:44;0.20;;;0.20;;
24223;SDS011;12359;49.716;9.212;2024-01-25T06:02:10;0.20;;;0.20;;
24223;SDS011;12359;49.716;9.212;2024-01-25T06:04:35;0.20;;;0.20;;
24223;SDS011;12359;49.716;9.212;2024-01-25T06:07:02;0.20;;;0.20;;
24223;SDS011;12359;49.716;9.212;2024-01-25T06:09:28;0.20;;;0.20;;
24223;SDS011;12359;49.716;9.212;2024-01-25T06:11:54;0.20;;;0.20;;
24223;SDS011;12359;49.716;9.212;2024-01-25T06:14:19;0.20;;;0.20;;
24223;SDS011;12359;49.716;9.212;2024-01-25T06:16:45;0.20;;;0.20;;
24223;SDS011;12359;49.716;9.212;2024-01-25T06:19:11;0.20;;;0.20;;
24223;SDS011;12359;49.716;9.212;2024-01-25T06:21:37;0.20;;;0.20;;
24223;SDS011;12359;49.716;9.212;2024-01-25T06:24:05;0.20;;;0.20;;
24223;SDS011;12359;49.716;9.212;2024-01-25T06:26:31;0.20;;;0.20;;
24223;SDS011;12359;49.716;9.212;2024-01-25T06:28:57;0.20;;;0.20;;
24223;SDS011;12359;49.716;9.212;2024-01-25T06:31:23;0.20;;;0.20;;
24223;SDS011;12359;49.716;9.212;2024-01-25T06:33:49;0.20;;;0.20;;
24223;SDS011;12359;49.716;9.212;2024-01-25T06:36:17;0.20;;;0.20;;
24223;SDS011;12359;49.716;9.212;2024-01-25T06:38:42;0.20;;;0.20;;
24223;SDS011;12359;49.716;9.212;2024-01-25T06:41:08;0.20;;;0.20;;
24223;SDS011;12359;49.716;9.212;2024-01-25T06:43:34;0.20;;;0.20;;
24223;SDS011;12359;49.716;9.212;2024-01-25T06:46:00;0.20;;;0.20;;
24223;SDS011;12359;49.716;9.212;2024-01-25T06:48:25;0.20;;;0.20;;
24223;SDS011;12359;49.716;9.212;2024-01-25T06:50:51;0.20;;;0.20;;
24223;SDS011;12359;49.716;9.212;2024-01-25T06:53:17;0.20;;;0.20;;
24223;SDS011;12359;49.716;9.212;2024-01-25T06:55:43;0.20;;;0.20;;
24223;SDS011;12359;49.716;9.212;2024-01-25T06:58:09;0.20;;;0.20;;
24223;SDS011;12359;49.716;9.212;2024-01-25T07:00:35;0.20;;;0.20;;
24223;SDS011;12359;49.716;9.212;2024-01-25T07:03:00;0.20;;;0.20;;
24223;SDS011;12359;49.716;9.212;2024-01-25T07:05:26;0.20;;;0.20;;
24223;SDS011;12359;49.716;9.212;2024-01-25T07:07:52;0.30;;;0.30;;
24223;SDS011;12359;49.716;9.212;2024-01-25T07:10:18;0.20;;;0.20;;
24223;SDS011;12359;49.716;9.212;2024-01-25T07:12:43;0.20;;;0.20;;
24223;SDS011;12359;49.716;9.212;2024-01-25T07:15:09;0.20;;;0.20;;
24223;SDS011;12359;49.716;9.212;2024-01-25T07:17:35;0.20;;;0.20;;
24223;SDS011;12359;49.716;9.212;2024-01-25T07:20:01;0.20;;;0.20;;
24223;SDS011;12359;49.716;9.212;2024-01-25T07:22:26;0.20;;;0.20;;
24223;SDS011;12359;49.716;9.212;2024-01-25T07:24:52;0.20;;;0.20;;
24223;SDS011;12359;49.716;9.212;2024-01-25T07:27:18;0.20;;;0.20;;
24223;SDS011;12359;49.716;9.212;2024-01-25T07:29:44;0.20;;;0.20;;
24223;SDS011;12359;49.716;9.212;2024-01-25T07:32:12;0.20;;;0.20;;
24223;SDS011;12359;49.716;9.212;2024-01-25T07:34:38;0.20;;;0.20;;
24223;SDS011;12359;49.716;9.212;2024-01-25T07:37:04;0.20;;;0.20;;
24223;SDS011;12359;49.716;9.212;2024-01-25T07:39:29;0.20;;;0.20;;
24223;SDS011;12359;49.716;9.212;2024-01-25T07:41:55;0.20;;;0.20;;
24223;SDS011;12359;49.716;9.212;2024-01-25T07:44:21;0.20;;;0.20;;
24223;SDS011;12359;49.716;9.212;2024-01-25T07:46:47;0.20;;;0.20;;
24223;SDS011;12359;49.716;9.212;2024-01-25T07:49:12;0.20;;;0.20;;
24223;SDS011;12359;49.716;9.212;2024-01-25T07:51:38;0.20;;;0.20;;
24223;SDS011;12359;49.716;9.212;2024-01-25T07:54:04;0.20;;;0.20;;
24223;SDS011;12359;49.716;9.212;2024-01-25T07:56:29;0.20;;;0.20;;
24223;SDS011;12359;49.716;9.212;2024-01-25T07:58:55;0.20;;;0.20;;
24223;SDS011;12359;49.716;9.212;2024-01-25T08:01:21;0.20;;;0.20;;
24223;SDS011;12359;49.716;9.212;2024-01-25T08:03:47;0.20;;;0.20;;
24223;SDS011;12359;49.716;9.212;2024-01-25T08:06:13;0.20;;;0.20;;
24223;SDS011;12359;49.716;9.212;2024-01-25T08:08:39;0.20;;;0.20;;
24223;SDS011;12359;49.716;9.212;2024-01-25T08:11:04;0.20;;;0.20;;
24223;SDS011;12359;49.716;9.212;2024-01-25T08:13:30;0.20;;;0.20;;
24223;SDS011;12359;49.716;9.212;2024-01-25T08:15:56;0.20;;;0.20;;
24223;SDS011;12359;49.716;9.212;2024-01-25T08:18:22;0.20;;;0.20;;
24223;SDS011;12359;49.716;9.212;2024-01-25T08:20:48;0.20;;;0.20;;
24223;SDS011;12359;49.716;9.212;2024-01-25T08:23:15;0.20;;;0.20;;
24223;SDS011;12359;49.716;9.212;2024-01-25T08:25:41;0.20;;;0.20;;
24223;SDS011;12359;49.716;9.212;2024-01-25T08:28:07;0.10;;;0.10;;
24223;SDS011;12359;49.716;9.212;2024-01-25T08:30:33;0.17;;;0.17;;
24223;SDS011;12359;49.716;9.212;2024-01-25T08:32:59;0.20;;;0.20;;
24223;SDS011;12359;49.716;9.212;2024-01-25T08:35:24;0.20;;;0.20;;
24223;SDS011;12359;49.716;9.212;2024-01-25T08:37:50;0.10;;;0.10;;
24223;SDS011;12359;49.716;9.212;2024-01-25T08:40:16;0.15;;;0.15;;
24223;SDS011;12359;49.716;9.212;2024-01-25T08:42:42;0.10;;;0.10;;
24223;SDS011;12359;49.716;9.212;2024-01-25T08:45:08;0.10;;;0.10;;
24223;SDS011;12359;49.716;9.212;2024-01-25T08:47:36;0.10;;;0.10;;
24223;SDS011;12359;49.716;9.212;2024-01-25T08:50:02;0.10;;;0.10;;
24223;SDS011;12359;49.716;9.212;2024-01-25T08:52:29;0.10;;;0.10;;
24223;SDS011;12359;49.716;9.212;2024-01-25T08:54:54;0.10;;;0.10;;
24223;SDS011;12359;49.716;9.212;2024-01-25T08:57:20;0.10;;;0.10;;
24223;SDS011;12359;49.716;9.212;2024-01-25T08:59:46;0.10;;;0.10;;
24223;SDS011;12359;49.716;9.212;2024-01-25T09:02:12;0.10;;;0.10;;
24223;SDS011;12359;49.716;9.212;2024-01-25T09:04:37;0.10;;;0.10;;
24223;SDS011;12359;49.716;9.212;2024-01-25T09:07:05;0.10;;;0.10;;
24223;SDS011;12359;49.716;9.212;2024-01-25T09:09:31;0.10;;;0.10;;
24223;SDS011;12359;49.716;9.212;2024-01-25T09:11:56;0.10;;;0.10;;
24223;SDS011;12359;49.716;9.212;2024-01-25T09:14:22;0.10;;;0.10;;
24223;SDS011;12359;49.716;9.212;2024-01-25T09:16:48;0.10;;;0.10;;
24223;SDS011;12359;49.716;9.212;2024-01-25T09:19:14;0.10;;;0.10;;
24223;SDS011;12359;49.716;9.212;2024-01-25T09:21:40;0.10;;;0.10;;
24223;SDS011;12359;49.716;9.212;2024-01-25T09:24:05;0.10;;;0.10;;
24223;SDS011;12359;49.716;9.212;2024-01-25T09:26:32;0.10;;;0.10;;
24223;SDS011;12359;49.716;9.212;2024-01-25T09:28:58;0.00;;;0.00;;
24223;SDS011;12359;49.716;9.212;2024-01-25T09:31:23;0.00;;;0.00;;
24223;SDS011;12359;49.716;9.212;2024-01-25T09:33:49;0.10;;;0.10;;
24223;SDS011;12359;49.716;9.212;2024-01-25T09:36:16;0.10;;;0.10;;
24223;SDS011;12359;49.716;9.212;2024-01-25T09:38:42;0.10;;;0.10;;
24223;SDS011;12359;49.716;9.212;2024-01-25T09:41:08;0.10;;;0.10;;
24223;SDS011;12359;49.716;9.212;2024-01-25T09:43:34;0.10;;;0.10;;
24223;SDS011;12359;49.716;9.212;2024-01-25T09:46:02;0.10;;;0.10;;
24223;SDS011;12359;49.716;9.212;2024-01-25T09:48:27;0.10;;;0.10;;
24223;SDS011;12359;49.716;9.212;2024-01-25T09:50:54;0.10;;;0.10;;
24223;SDS011;12359;49.716;9.212;2024-01-25T09:53:21;0.10;;;0.10;;
24223;SDS011;12359;49.716;9.212;2024-01-25T09:56:10;0.10;;;0.10;;
24223;SDS011;12359;49.716;9.212;2024-01-25T09:58:43;0.10;;;0.10;;
24223;SDS011;12359;49.716;9.212;2024-01-25T10:01:13;0.10;;;0.10;;
24223;SDS011;12359;49.716;9.212;2024-01-25T10:03:43;0.10;;;0.10;;
24223;SDS011;12359;49.716;9.212;2024-01-25T10:06:10;0.10;;;0.10;;
24223;SDS011;12359;49.716;9.212;2024-01-25T10:08:37;0.10;;;0.10;;
24223;SDS011;12359;49.716;9.212;2024-01-25T10:11:03;0.10;;;0.10;;
24223;SDS011;12359;49.716;9.212;2024-01-25T10:13:29;0.10;;;0.10;;
24223;SDS011;12359;49.716;9.212;2024-01-25T10:15:55;0.10;;;0.10;;
24223;SDS011;12359;49.716;9.212;2024-01-25T10:18:22;0.10;;;0.10;;
24223;SDS011;12359;49.716;9.212;2024-01-25T10:20:48;0.10;;;0.10;;
24223;SDS011;12359;49.716;9.212;2024-01-25T10:23:14;0.10;;;0.10;;
24223;SDS011;12359;49.716;9.212;2024-01-25T10:25:41;0.10;;;0.10;;
24223;SDS011;12359;49.716;9.212;2024-01-25T10:28:07;0.10;;;0.10;;
24223;SDS011;12359;49.716;9.212;2024-01-25T10:30:33;0.10;;;0.10;;
24223;SDS011;12359;49.716;9.212;2024-01-25T10:33:00;0.10;;;0.10;;
24223;SDS011;12359;49.716;9.212;2024-01-25T10:35:27;0.10;;;0.10;;
24223;SDS011;12359;49.716;9.212;2024-01-25T10:37:54;0.10;;;0.10;;
24223;SDS011;12359;49.716;9.212;2024-01-25T10:40:20;0.10;;;0.10;;
24223;SDS011;12359;49.716;9.212;2024-01-25T10:42:47;0.10;;;0.10;;
24223;SDS011;12359;49.716;9.212;2024-01-25T10:45:13;0.10;;;0.10;;
24223;SDS011;12359;49.716;9.212;2024-01-25T10:47:39;0.10;;;0.10;;
24223;SDS011;12359;49.716;9.212;2024-01-25T10:50:10;0.10;;;0.10;;
24223;SDS011;12359;49.716;9.212;2024-01-25T10:52:38;0.10;;;0.10;;
24223;SDS011;12359;49.716;9.212;2024-01-25T10:55:06;0.10;;;0.10;;
24223;SDS011;12359;49.716;9.212;2024-01-25T10:57:42;0.10;;;0.10;;
24223;SDS011;12359;49.716;9.212;2024-01-25T11:02:35;0.10;;;0.10;;
24223;SDS011;12359;49.716;9.212;2024-01-25T11:05:02;0.10;;;0.10;;
24223;SDS011;12359;49.716;9.212;2024-01-25T11:07:50;0.10;;;0.10;;
24223;SDS011;12359;49.716;9.212;2024-01-25T11:10:20;0.10;;;0.10;;
24223;SDS011;12359;49.716;9.212;2024-01-25T11:12:56;0.10;;;0.10;;
24223;SDS011;12359;49.716;9.212;2024-01-25T11:15:29;0.10;;;0.10;;
24223;SDS011;12359;49.716;9.212;2024-01-25T11:17:55;0.10;;;0.10;;
24223;SDS011;12359;49.716;9.212;2024-01-25T11:20:26;0.10;;;0.10;;
24223;SDS011;12359;49.716;9.212;2024-01-25T11:23:01;0.10;;;0.10;;
24223;SDS011;12359;49.716;9.212;2024-01-25T11:25:28;0.10;;;0.10;;
24223;SDS011;12359;49.716;9.212;2024-01-25T11:27:55;0.10;;;0.10;;
24223;SDS011;12359;49.716;9.212;2024-01-25T11:30:20;0.10;;;0.10;;
24223;SDS011;12359;49.716;9.212;2024-01-25T11:32:47;0.10;;;0.10;;
24223;SDS011;12359;49.716;9.212;2024-01-25T11:35:13;0.17;;;0.17;;
24223;SDS011;12359;49.716;9.212;2024-01-25T11:37:48;0.20;;;0.20;;
24223;SDS011;12359;49.716;9.212;2024-01-25T11:40:15;0.20;;;0.20;;
24223;SDS011;12359;49.716;9.212;2024-01-25T11:42:50;0.10;;;0.10;;
24223;SDS011;12359;49.716;9.212;2024-01-25T11:45:16;0.10;;;0.10;;
24223;SDS011;12359;49.716;9.212;2024-01-25T11:47:42;0.20;;;0.20;;
24223;SDS011;12359;49.716;9.212;2024-01-25T11:50:09;0.20;;;0.20;;
24223;SDS011;12359;49.716;9.212;2024-01-25T11:52:36;0.10;;;0.10;;
24223;SDS011;12359;49.716;9.212;2024-01-25T11:55:03;0.20;;;0.20;;
24223;SDS011;12359;49.716;9.212;2024-01-25T11:57:31;0.20;;;0.20;;
24223;SDS011;12359;49.716;9.212;2024-01-25T12:00:02;0.10;;;0.10;;
24223;SDS011;12359;49.716;9.212;2024-01-25T12:02:32;0.10;;;0.10;;
24223;SDS011;12359;49.716;9.212;2024-01-25T12:04:59;0.10;;;0.10;;
24223;SDS011;12359;49.716;9.212;2024-01-25T12:07:26;0.17;;;0.17;;
24223;SDS011;12359;49.716;9.212;2024-01-25T12:09:59;0.10;;;0.10;;
24223;SDS011;12359;49.716;9.212;2024-01-25T12:12:28;0.20;;;0.20;;
24223;SDS011;12359;49.716;9.212;2024-01-25T12:14:57;0.20;;;0.20;;
24223;SDS011;12359;49.716;9.212;2024-01-25T12:17:25;0.20;;;0.20;;
24223;SDS011;12359;49.716;9.212;2024-01-25T12:19:53;0.13;;;0.13;;
24223;SDS011;12359;49.716;9.212;2024-01-25T12:22:21;0.10;;;0.10;;
24223;SDS011;12359;49.716;9.212;2024-01-25T12:24:47;0.20;;;0.20;;
24223;SDS011;12359;49.716;9.212;2024-01-25T12:27:14;0.20;;;0.20;;
24223;SDS011;12359;49.716;9.212;2024-01-25T12:29:41;0.10;;;0.10;;
24223;SDS011;12359;49.716;9.212;2024-01-25T12:32:08;0.20;;;0.20;;
24223;SDS011;12359;49.716;9.212;2024-01-25T12:34:34;0.20;;;0.20;;
24223;SDS011;12359;49.716;9.212;2024-01-25T12:37:02;0.15;;;0.15;;
24223;SDS011;12359;49.716;9.212;2024-01-25T12:39:28;0.20;;;0.20;;
24223;SDS011;12359;49.716;9.212;2024-01-25T12:41:53;0.10;;;0.10;;
24223;SDS011;12359;49.716;9.212;2024-01-25T12:44:19;0.10;;;0.10;;
24223;SDS011;12359;49.716;9.212;2024-01-25T12:46:45;0.20;;;0.20;;
24223;SDS011;12359;49.716;9.212;2024-01-25T12:49:11;0.10;;;0.10;;
24223;SDS011;12359;49.716;9.212;2024-01-25T12:51:36;0.20;;;0.20;;
24223;SDS011;12359;49.716;9.212;2024-01-25T12:54:02;0.20;;;0.20;;
24223;SDS011;12359;49.716;9.212;2024-01-25T12:56:28;0.20;;;0.20;;
24223;SDS011;12359;49.716;9.212;2024-01-25T12:58:54;0.10;;;0.10;;
24223;SDS011;12359;49.716;9.212;2024-01-25T13:01:19;0.10;;;0.10;;
24223;SDS011;12359;49.716;9.212;2024-01-25T13:03:45;0.10;;;0.10;;
24223;SDS011;12359;49.716;9.212;2024-01-25T13:06:12;0.10;;;0.10;;
24223;SDS011;12359;49.716;9.212;2024-01-25T13:08:38;0.10;;;0.10;;
24223;SDS011;12359;49.716;9.212;2024-01-25T13:11:04;0.20;;;0.20;;
24223;SDS011;12359;49.716;9.212;2024-01-25T13:13:30;0.20;;;0.20;;
24223;SDS011;12359;49.716;9.212;2024-01-25T13:15:55;0.10;;;0.10;;
24223;SDS011;12359;49.716;9.212;2024-01-25T13:18:21;0.20;;;0.20;;
24223;SDS011;12359;49.716;9.212;2024-01-25T13:20:47;0.20;;;0.20;;
24223;SDS011;12359;49.716;9.212;2024-01-25T13:23:13;0.10;;;0.10;;
24223;SDS011;12359;49.716;9.212;2024-01-25T13:25:38;0.10;;;0.10;;
24223;SDS011;12359;49.716;9.212;2024-01-25T13:28:04;0.20;;;0.20;;
24223;SDS011;12359;49.716;9.212;2024-01-25T13:30:30;0.20;;;0.20;;
24223;SDS011;12359;49.716;9.212;2024-01-25T13:32:55;0.20;;;0.20;;
24223;SDS011;12359;49.716;9.212;2024-01-25T13:35:21;0.20;;;0.20;;
24223;SDS011;12359;49.716;9.212;2024-01-25T13:37:47;0.10;;;0.10;;
24223;SDS011;12359;49.716;9.212;2024-01-25T13:40:12;0.20;;;0.20;;
24223;SDS011;12359;49.716;9.212;2024-01-25T13:42:38;0.20;;;0.20;;
24223;SDS011;12359;49.716;9.212;2024-01-25T13:45:05;0.20;;;0.20;;
24223;SDS011;12359;49.716;9.212;2024-01-25T13:47:32;0.10;;;0.10;;
24223;SDS011;12359;49.716;9.212;2024-01-25T13:49:59;0.20;;;0.20;;
24223;SDS011;12359;49.716;9.212;2024-01-25T13:52:24;0.10;;;0.10;;
24223;SDS011;12359;49.716;9.212;2024-01-25T13:54:50;0.10;;;0.10;;
24223;SDS011;12359;49.716;9.212;2024-01-25T13:57:15;0.10;;;0.10;;
24223;SDS011;12359;49.716;9.212;2024-01-25T13:59:41;0.20;;;0.20;;
24223;SDS011;12359;49.716;9.212;2024-01-25T14:02:07;0.20;;;0.20;;
24223;SDS011;12359;49.716;9.212;2024-01-25T14:04:33;0.20;;;0.20;;
24223;SDS011;12359;49.716;9.212;2024-01-25T14:06:59;0.10;;;0.10;;
24223;SDS011;12359;49.716;9.212;2024-01-25T14:09:27;0.10;;;0.10;;
24223;SDS011;12359;49.716;9.212;2024-01-25T14:11:54;0.10;;;0.10;;
24223;SDS011;12359;49.716;9.212;2024-01-25T14:14:20;0.10;;;0.10;;
24223;SDS011;12359;49.716;9.212;2024-01-25T14:16:46;0.20;;;0.20;;
24223;SDS011;12359;49.716;9.212;2024-01-25T14:19:11;0.20;;;0.20;;
24223;SDS011;12359;49.716;9.212;2024-01-25T14:21:37;0.10;;;0.10;;
24223;SDS011;12359;49.716;9.212;2024-01-25T14:24:03;0.20;;;0.20;;
24223;SDS011;12359;49.716;9.212;2024-01-25T14:26:28;0.20;;;0.20;;
24223;SDS011;12359;49.716;9.212;2024-01-25T14:28:54;0.10;;;0.10;;
24223;SDS011;12359;49.716;9.212;2024-01-25T14:31:19;0.10;;;0.10;;
24223;SDS011;12359;49.716;9.212;2024-01-25T14:33:45;0.20;;;0.20;;
24223;SDS011;12359;49.716;9.212;2024-01-25T14:36:11;0.20;;;0.20;;
24223;SDS011;12359;49.716;9.212;2024-01-25T14:38:38;0.20;;;0.20;;
24223;SDS011;12359;49.716;9.212;2024-01-25T14:41:07;0.20;;;0.20;;
24223;SDS011;12359;49.716;9.212;2024-01-25T14:43:34;0.20;;;0.20;;
24223;SDS011;12359;49.716;9.212;2024-01-25T14:46:00;0.20;;;0.20;;